4NE3 weather

Simon Heliport
North Platte, Nebraska, United States

Public forecast

Using degrees Fahrenheit for public forecast. Weather courtesy of forecast.io.

Closest aviation weather report (METAR) to Simon Heliport

Closest report is North Platte Regional Airport Lee Bird Field, 3.0 nm (5.6 km) ENE. Retrieved 2019/10/18 00:53 UTC (13 minutes ago):

KLBF 180053Z AUTO 14011KT 10SM CLR 18/02 A2961 RMK AO2 SLP027 T01830022

Closest aviation forecast (TAF) to Simon Heliport

Closest forecast is North Platte Regional Airport Lee Bird Field, 3.0 nm (5.6 km) ENE. Retrieved 2019-10-18 00:22 UTC (44 minutes ago):

TAF KLBF 172320Z 1800/1824 14010KT P6SM SCT250 FM181100 29008KT P6SM FEW250 FM181700 33016G24KT P6SM FEW250